Southeast Iowa Regional Airport

Airport
ICAO code: 
KBRL
Summary
ICAO Region: 
NAM
Territory: 
Location: 
Burlington, Iowa,
Coordinates: 
Aerial View: 
40° 46' 46.112" N, 91° 7' 23.923" W
Airport CFIT: 
Altimeter Temperature Error Correction
Metar
Observation
KBRL 020853Z AUTO 24007KT 10SM CLR 08/02 A2979 RMK AO2 SLP089 T00830022 52003
Station
Burlington, Burlington Regional Airport
Date/Time
2021-12-02 08:53:00
Wind direction
240°
Wind speed
07 kts
Lowest cloud amount
n/a
Temperature
8.3°C
Dew point
2.2°C
Humidity
65%
Weather condition
n/a

Description

Southeast Iowa Regional Airport is a public use airport located 4 km southwest of the central business district of Burlington, a city in Des Moines County, Iowa.

Climatology

Humid continental climate (Köppen climate classification Dfa) - characterized by four seasons: cold, windy, snowy winters, mild springs, hot, humid summers, and crisp and relatively short autumns. Precipitation reaches its lowest in January and February and peaks in summer and latter half of spring.

Runways

Designator Length Width Surface Rops
12/30 1631 30 CON Yes/Yes
18/36 2043 46 PEM Yes/Yes
Airport map: 
Aerial View: 

SKYbrary Partners:

Safety knowledge contributed by: